Time;durP1;ratioP1;P1;durP2;ratioP2;P2;SDS_P1;SDS_P2;PMS_P1;PMS_P2;Temp;Humidity;BMP_temperature;BMP_pressure;BME280_temperature;BME280_humidity;BME280_pressure;Samples;Min_cycle;Max_cycle;Signal;HPM_P1;HPM_P2
2022/08/31 00:05:19;;;;;;;5.97;5.33;;;23.00;90.00;;;;;;6227015;28;20236;-67
2022/08/31 00:08:22;;;;;;;6.67;5.10;;;23.00;90.10;;;;;;6227183;28;20209;-67
2022/08/31 00:11:29;;;;;;;6.00;5.40;;;22.90;90.40;;;;;;6227321;28;20527;-67
2022/08/31 00:14:32;;;;;;;6.07;5.47;;;22.90;90.60;;;;;;6226499;28;20310;-67
2022/08/31 00:17:37;;;;;;;5.57;4.93;;;22.90;90.80;;;;;;6227125;28;20235;-67
2022/08/31 00:20:40;;;;;;;5.27;4.77;;;22.90;90.90;;;;;;6226739;28;20231;-67
2022/08/31 00:23:44;;;;;;;6.47;5.10;;;22.90;91.00;;;;;;6226915;28;20236;-68
2022/08/31 00:26:47;;;;;;;5.40;4.83;;;22.90;91.10;;;;;;6226885;28;20236;-67
2022/08/31 00:29:50;;;;;;;7.70;5.00;;;22.80;91.20;;;;;;6226813;28;20225;-67
2022/08/31 00:32:55;;;;;;;5.70;5.17;;;22.80;91.30;;;;;;6226430;28;20231;-67
2022/08/31 00:36:00;;;;;;;6.83;5.10;;;22.80;91.70;;;;;;6226476;28;20553;-68
2022/08/31 00:39:04;;;;;;;5.50;5.00;;;22.80;91.90;;;;;;6226971;28;20649;-67
2022/08/31 00:42:08;;;;;;;9.83;5.03;;;22.80;92.30;;;;;;6226864;28;20228;-67
2022/08/31 00:45:11;;;;;;;7.10;5.17;;;22.80;92.30;;;;;;6226413;28;20233;-68
2022/08/31 00:48:16;;;;;;;8.60;5.33;;;22.70;92.50;;;;;;6225703;28;20225;-68
2022/08/31 00:51:19;;;;;;;5.77;5.27;;;22.70;92.60;;;;;;6226104;28;20320;-68
2022/08/31 00:54:26;;;;;;;6.20;5.33;;;22.70;92.70;;;;;;6225978;28;20228;-68
2022/08/31 00:57:33;;;;;;;5.20;4.70;;;22.70;92.90;;;;;;6225766;28;20243;-68
2022/08/31 01:00:39;;;;;;;7.00;6.07;;;22.70;93.00;;;;;;6225470;28;20557;-68
2022/08/31 01:03:43;;;;;;;6.63;5.50;;;22.70;93.20;;;;;;6225822;28;20233;-68
2022/08/31 01:06:48;;;;;;;5.37;4.87;;;22.70;93.20;;;;;;6224734;28;20233;-68
2022/08/31 01:09:51;;;;;;;7.53;5.20;;;22.70;93.30;;;;;;6225790;28;20225;-68
2022/08/31 01:12:58;;;;;;;5.80;5.23;;;22.70;93.20;;;;;;6225313;28;20236;-68
2022/08/31 01:16:07;;;;;;;4.60;4.17;;;22.70;93.10;;;;;;6225679;28;20295;-68
2022/08/31 01:19:19;;;;;;;5.60;5.20;;;22.70;93.10;;;;;;6225590;28;20561;-68
2022/08/31 01:22:30;;;;;;;6.03;5.43;;;22.60;93.00;;;;;;6225616;28;20237;-68
2022/08/31 01:25:36;;;;;;;5.80;5.23;;;22.60;93.20;;;;;;6225402;28;20685;-68
2022/08/31 01:28:39;;;;;;;7.93;5.03;;;22.40;93.40;;;;;;6225549;28;20251;-67
2022/08/31 01:31:44;;;;;;;7.43;5.47;;;22.30;93.60;;;;;;6225569;28;20233;-67
2022/08/31 01:34:47;;;;;;;5.23;4.73;;;22.10;94.10;;;;;;6216252;28;20237;-67
2022/08/31 01:37:51;;;;;;;5.67;5.17;;;22.10;94.60;;;;;;6226314;28;20237;-67
2022/08/31 01:41:00;;;;;;;6.40;4.90;;;22.20;94.90;;;;;;6227991;28;20271;-68
2022/08/31 01:44:03;;;;;;;5.80;5.17;;;22.10;95.10;;;;;;6228240;28;20311;-68
2022/08/31 01:47:06;;;;;;;6.10;5.50;;;22.10;95.30;;;;;;6227179;28;20232;-68
2022/08/31 01:50:10;;;;;;;5.33;4.83;;;22.10;95.40;;;;;;6225846;28;20335;-68
2022/08/31 01:53:13;;;;;;;4.80;4.30;;;22.20;95.50;;;;;;6225617;28;20380;-68
2022/08/31 01:56:21;;;;;;;6.23;5.47;;;22.10;95.70;;;;;;6225140;28;20249;-68
2022/08/31 01:59:24;;;;;;;5.47;4.97;;;22.00;96.00;;;;;;6226183;28;20217;-68
2022/08/31 02:02:27;;;;;;;6.00;5.50;;;22.00;96.00;;;;;;6225226;28;20220;-68
2022/08/31 02:05:31;;;;;;;6.20;5.60;;;22.00;96.10;;;;;;6225748;28;20320;-67
2022/08/31 02:08:34;;;;;;;7.43;4.60;;;22.10;96.20;;;;;;6225172;28;20634;-67
2022/08/31 02:11:39;;;;;;;5.90;5.40;;;22.10;96.30;;;;;;6225405;28;20228;-67
2022/08/31 02:14:42;;;;;;;6.30;5.10;;;22.10;96.30;;;;;;6225323;28;20241;-67
2022/08/31 02:17:45;;;;;;;6.93;5.10;;;22.10;96.30;;;;;;6226158;28;20225;-68
2022/08/31 02:20:48;;;;;;;6.53;5.17;;;22.10;96.20;;;;;;6229622;28;20229;-68
2022/08/31 02:23:51;;;;;;;5.37;4.87;;;22.10;96.30;;;;;;6229402;28;20229;-68
2022/08/31 02:26:56;;;;;;;9.20;5.43;;;22.00;96.50;;;;;;6229297;28;20682;-68
2022/08/31 02:29:59;;;;;;;6.90;5.87;;;22.00;96.60;;;;;;6228993;28;20229;-68
2022/08/31 02:33:03;;;;;;;4.60;4.27;;;22.00;96.60;;;;;;6229505;28;20229;-68
2022/08/31 02:36:06;;;;;;;7.13;5.87;;;22.00;96.80;;;;;;6221240;28;20320;-68
2022/08/31 02:39:12;;;;;;;5.17;4.70;;;21.90;96.80;;;;;;6229526;28;20229;-68
2022/08/31 02:42:18;;;;;;;4.43;4.03;;;21.90;96.90;;;;;;6229512;28;20225;-68
2022/08/31 02:45:21;;;;;;;6.97;5.40;;;21.90;97.00;;;;;;6229317;28;20229;-68
2022/08/31 02:48:24;;;;;;;4.63;4.23;;;21.80;97.20;;;;;;6229490;28;20232;-69
2022/08/31 02:51:28;;;;;;;5.87;5.00;;;21.80;97.50;;;;;;6229042;28;20243;-69
2022/08/31 02:54:31;;;;;;;6.77;4.33;;;21.80;97.50;;;;;;6228566;28;20228;-68
2022/08/31 02:57:35;;;;;;;5.87;4.80;;;21.70;97.40;;;;;;6228711;28;20233;-68
2022/08/31 03:00:40;;;;;;;4.90;4.40;;;21.60;97.40;;;;;;6228476;28;20225;-68
2022/08/31 03:03:43;;;;;;;6.70;4.73;;;21.60;97.40;;;;;;6228831;28;20261;-68
2022/08/31 03:06:50;;;;;;;4.80;4.40;;;21.60;97.50;;;;;;6228641;28;20237;-68
2022/08/31 03:09:53;;;;;;;9.07;4.97;;;21.60;97.60;;;;;;6228570;28;20229;-69
2022/08/31 03:12:58;;;;;;;6.83;4.47;;;21.60;97.70;;;;;;6228820;28;20692;-69
2022/08/31 03:16:01;;;;;;;10.57;4.90;;;21.60;97.80;;;;;;6228569;28;20233;-66
2022/08/31 03:19:04;;;;;;;6.37;4.97;;;21.60;97.70;;;;;;6228046;28;20577;-68
2022/08/31 03:22:08;;;;;;;5.70;4.43;;;21.60;97.90;;;;;;6228086;28;20233;-69
2022/08/31 03:25:11;;;;;;;6.37;4.70;;;21.50;98.00;;;;;;6228092;28;20229;-68
2022/08/31 03:28:15;;;;;;;5.00;4.60;;;21.50;98.80;;;;;;6228014;28;20233;-68
2022/08/31 03:31:18;;;;;;;7.50;4.70;;;21.50;98.70;;;;;;6226744;28;20229;-68
2022/08/31 03:34:22;;;;;;;5.13;4.40;;;21.40;98.60;;;;;;6227684;28;20669;-68
2022/08/31 03:37:26;;;;;;;8.23;4.57;;;21.40;98.60;;;;;;6227514;28;20239;-67
2022/08/31 03:40:30;;;;;;;5.00;4.50;;;21.30;98.90;;;;;;6227017;28;20312;-68
2022/08/31 03:43:36;;;;;;;4.90;4.40;;;21.30;98.80;;;;;;6226937;28;20228;-69
2022/08/31 03:46:43;;;;;;;8.50;4.30;;;21.30;99.00;;;;;;6226600;28;20229;-68
2022/08/31 03:49:46;;;;;;;5.83;4.83;;;21.30;99.30;;;;;;6227350;28;20315;-68
2022/08/31 03:52:49;;;;;;;9.13;4.53;;;21.30;99.40;;;;;;6227365;28;20229;-68
2022/08/31 03:55:59;;;;;;;5.97;4.63;;;21.30;99.50;;;;;;6227212;28;20248;-69
2022/08/31 03:59:04;;;;;;;5.87;5.27;;;21.40;99.70;;;;;;6227497;28;20229;-69
2022/08/31 04:02:07;;;;;;;5.80;5.20;;;21.40;99.60;;;;;;6226559;28;20229;-69
2022/08/31 04:05:12;;;;;;;5.43;4.93;;;21.30;99.40;;;;;;6226858;28;20241;-67
2022/08/31 04:08:16;;;;;;;6.87;5.03;;;21.20;99.50;;;;;;6226259;28;20661;-67
2022/08/31 04:11:20;;;;;;;7.47;5.70;;;21.30;99.70;;;;;;6227194;28;20205;-67
2022/08/31 04:14:45;;;;;;;5.53;5.03;;;21.30;99.70;;;;;;6226720;28;20229;-66
2022/08/31 04:17:48;;;;;;;5.77;4.97;;;21.30;99.60;;;;;;6227038;28;20225;-66
2022/08/31 04:20:58;;;;;;;10.07;5.57;;;21.30;99.80;;;;;;6226491;28;20263;-66
2022/08/31 04:24:03;;;;;;;4.90;4.40;;;21.30;99.70;;;;;;6226873;28;20231;-66
2022/08/31 04:27:06;;;;;;;8.30;4.80;;;21.30;99.70;;;;;;6226516;28;20564;-66
2022/08/31 04:30:11;;;;;;;5.03;4.53;;;21.30;99.60;;;;;;6226219;28;20227;-66
2022/08/31 04:33:15;;;;;;;4.80;4.40;;;21.30;99.70;;;;;;6226670;28;20228;-67
2022/08/31 04:36:21;;;;;;;6.10;5.07;;;21.30;99.60;;;;;;6226090;28;20229;-67
2022/08/31 04:39:24;;;;;;;5.47;4.83;;;21.30;99.70;;;;;;6225962;28;20252;-67
2022/08/31 04:42:28;;;;;;;9.03;5.00;;;21.30;99.70;;;;;;6225884;28;20237;-67
2022/08/31 04:45:33;;;;;;;4.83;4.43;;;21.30;99.70;;;;;;6221389;28;20582;-67
2022/08/31 04:48:36;;;;;;;5.30;4.73;;;21.20;99.60;;;;;;6226531;28;20268;-67
2022/08/31 04:51:40;;;;;;;5.37;4.67;;;21.20;99.80;;;;;;6226329;28;20232;-66
2022/08/31 04:54:43;;;;;;;5.20;4.80;;;21.30;99.70;;;;;;6225881;28;20248;-66
2022/08/31 04:57:46;;;;;;;4.50;4.00;;;21.30;99.60;;;;;;6225940;28;20256;-67
2022/08/31 05:00:51;;;;;;;6.40;4.50;;;21.30;99.40;;;;;;6225952;28;20225;-67
2022/08/31 05:03:56;;;;;;;5.57;4.60;;;21.40;99.30;;;;;;6225906;28;20919;-67
2022/08/31 05:07:00;;;;;;;6.60;5.17;;;21.40;99.30;;;;;;6225668;28;20244;-67
2022/08/31 05:10:04;;;;;;;9.33;4.67;;;21.40;99.10;;;;;;6225921;28;20228;-67
2022/08/31 05:13:07;;;;;;;5.10;4.57;;;21.50;99.30;;;;;;6225851;28;20239;-67
2022/08/31 05:16:14;;;;;;;7.10;4.80;;;21.50;98.80;;;;;;6225413;28;20248;-67
2022/08/31 05:19:18;;;;;;;8.53;4.50;;;21.50;98.60;;;;;;6225421;28;20232;-67
2022/08/31 05:22:21;;;;;;;6.77;4.80;;;21.60;98.70;;;;;;6225569;28;20237;-67
2022/08/31 05:25:24;;;;;;;8.00;5.10;;;21.70;98.80;;;;;;6225142;28;20233;-67
2022/08/31 05:28:27;;;;;;;10.13;5.13;;;21.90;98.70;;;;;;6225616;28;20240;-67
2022/08/31 05:31:33;;;;;;;6.73;5.20;;;22.00;98.40;;;;;;6225303;28;20220;-67
2022/08/31 05:34:36;;;;;;;7.57;5.37;;;22.10;98.10;;;;;;6225290;28;20250;-67
2022/08/31 05:37:39;;;;;;;6.00;5.27;;;22.10;97.80;;;;;;6225364;28;20239;-71
2022/08/31 05:40:43;;;;;;;5.73;5.07;;;22.20;97.60;;;;;;6224780;28;20704;-71
2022/08/31 05:43:46;;;;;;;5.47;4.50;;;22.20;97.60;;;;;;6225229;28;20252;-71
2022/08/31 05:46:50;;;;;;;7.10;4.53;;;22.10;97.40;;;;;;6224847;28;20240;-71
2022/08/31 05:49:59;;;;;;;6.43;5.00;;;22.20;97.10;;;;;;6206615;28;20562;-71
2022/08/31 05:53:03;;;;;;;8.13;5.13;;;22.20;96.90;;;;;;6226230;28;20269;-71
2022/08/31 05:56:09;;;;;;;9.00;5.03;;;22.10;96.60;;;;;;6230062;28;20290;-71
2022/08/31 05:59:13;;;;;;;6.03;5.43;;;22.10;96.60;;;;;;6229841;28;20240;-70
2022/08/31 06:02:17;;;;;;;5.90;5.33;;;22.20;96.80;;;;;;6229150;28;20658;-70
2022/08/31 06:05:21;;;;;;;8.87;5.30;;;22.30;96.50;;;;;;6229986;28;20312;-71
2022/08/31 06:08:24;;;;;;;5.60;5.03;;;22.30;96.40;;;;;;6229873;28;20245;-71
2022/08/31 06:11:31;;;;;;;12.37;6.17;;;22.30;96.40;;;;;;6229630;28;20205;-71
2022/08/31 06:14:34;;;;;;;8.00;5.70;;;22.30;96.50;;;;;;6228088;28;20252;-71
2022/08/31 06:17:40;;;;;;;9.83;5.40;;;22.30;96.50;;;;;;6228528;28;20264;-71
2022/08/31 06:20:43;;;;;;;7.40;5.20;;;22.40;96.50;;;;;;6226617;28;20601;-71
2022/08/31 06:23:47;;;;;;;5.90;4.83;;;22.50;96.50;;;;;;6228252;28;20236;-71
2022/08/31 06:26:54;;;;;;;9.23;5.00;;;22.60;96.30;;;;;;6228908;28;20674;-71
2022/08/31 06:30:01;;;;;;;8.70;5.47;;;22.80;96.20;;;;;;6229478;28;20307;-71
2022/08/31 06:33:10;;;;;;;5.60;5.07;;;22.90;95.80;;;;;;6229188;28;20240;-71
2022/08/31 06:36:16;;;;;;;6.73;5.20;;;23.00;95.50;;;;;;6228972;28;20233;-70
2022/08/31 06:39:19;;;;;;;7.87;5.53;;;23.10;95.50;;;;;;6229052;28;20605;-71
2022/08/31 06:42:22;;;;;;;6.50;5.60;;;23.30;95.40;;;;;;6228580;28;20252;-71
2022/08/31 06:45:25;;;;;;;8.70;5.60;;;23.50;95.00;;;;;;6228648;28;20233;-71
2022/08/31 06:48:30;;;;;;;6.63;5.60;;;23.60;94.80;;;;;;6228552;28;20240;-71
2022/08/31 06:51:35;;;;;;;6.10;5.40;;;23.80;94.30;;;;;;6228923;28;20236;-71
2022/08/31 06:54:38;;;;;;;6.67;6.07;;;23.90;94.40;;;;;;6228438;28;20552;-71
2022/08/31 06:57:41;;;;;;;11.83;6.43;;;24.00;94.20;;;;;;6228238;28;20233;-71
2022/08/31 07:00:46;;;;;;;7.80;7.07;;;24.00;93.80;;;;;;6227941;28;20572;-71
2022/08/31 07:03:51;;;;;;;8.70;7.10;;;24.00;93.60;;;;;;6226987;28;20238;-71
2022/08/31 07:06:55;;;;;;;9.50;7.00;;;23.90;93.70;;;;;;6226942;28;20544;-71
2022/08/31 07:09:58;;;;;;;8.00;7.03;;;23.90;93.40;;;;;;6223768;28;20559;-71
2022/08/31 07:13:02;;;;;;;8.63;7.00;;;24.00;93.30;;;;;;6226715;28;20217;-71
2022/08/31 07:16:07;;;;;;;10.93;7.80;;;23.90;93.70;;;;;;6226392;28;20235;-71
2022/08/31 07:19:12;;;;;;;10.10;8.27;;;24.00;94.10;;;;;;6226522;28;20696;-71
2022/08/31 07:22:16;;;;;;;9.73;6.97;;;24.10;94.30;;;;;;6226088;28;20395;-70
2022/08/31 07:25:19;;;;;;;13.30;8.03;;;24.00;94.40;;;;;;6226678;28;20327;-67
2022/08/31 07:28:23;;;;;;;10.87;8.37;;;23.90;94.90;;;;;;6225444;28;20225;-70
2022/08/31 07:31:42;;;;;;;12.03;10.80;;;23.80;95.00;;;;;;6226685;28;20567;-70
2022/08/31 07:34:47;;;;;;;9.80;7.80;;;23.70;95.60;;;;;;6227322;28;20237;-70
2022/08/31 07:44:41;;;;;;;13.17;10.00;;;23.10;97.90;;;;;;6227378;28;20577;-66
2022/08/31 07:47:55;;;;;;;10.77;8.47;;;22.90;98.50;;;;;;6226445;28;20230;-66
2022/08/31 07:50:59;;;;;;;9.70;8.67;;;22.70;99.60;;;;;;6226842;28;20225;-66
2022/08/31 07:54:05;;;;;;;10.20;8.20;;;22.70;99.90;;;;;;6225698;28;20229;-68
2022/08/31 07:57:08;;;;;;;9.77;8.50;;;22.70;99.90;;;;;;6221190;28;20244;-68
2022/08/31 08:00:14;;;;;;;14.37;9.50;;;22.70;99.90;;;;;;6225614;28;20235;-68
2022/08/31 08:03:17;;;;;;;9.10;8.30;;;22.50;99.90;;;;;;6225966;28;20352;-69
2022/08/31 08:06:27;;;;;;;12.50;8.90;;;22.40;99.90;;;;;;6225575;28;20236;-69
2022/08/31 08:09:32;;;;;;;10.10;9.10;;;22.30;99.90;;;;;;6225216;28;20684;-69
2022/08/31 08:12:37;;;;;;;12.90;9.50;;;22.40;99.90;;;;;;6224059;28;20229;-69
2022/08/31 08:15:40;;;;;;;11.67;8.93;;;22.50;99.90;;;;;;6223595;28;20248;-69
2022/08/31 08:18:44;;;;;;;12.23;8.33;;;22.50;99.90;;;;;;6224204;28;20374;-69
2022/08/31 08:21:48;;;;;;;10.23;8.30;;;22.50;99.90;;;;;;6224581;28;20311;-69
2022/08/31 08:24:56;;;;;;;12.07;8.00;;;22.60;99.90;;;;;;6224283;28;20249;-68
2022/08/31 08:28:01;;;;;;;13.73;7.90;;;22.80;99.90;;;;;;6227105;28;20236;-68
2022/08/31 08:31:24;;;;;;;10.27;8.17;;;23.10;99.90;;;;;;6203937;28;20548;-68
2022/08/31 08:34:27;;;;;;;10.33;7.43;;;23.40;99.20;;;;;;6204256;28;20229;-69
2022/08/31 08:37:38;;;;;;;7.37;6.67;;;23.60;98.80;;;;;;6220451;28;20229;-69
2022/08/31 08:41:06;;;;;;;7.07;6.30;;;23.90;98.70;;;;;;6225655;28;20225;-69
2022/08/31 08:44:11;;;;;;;6.97;6.27;;;24.30;98.00;;;;;;6225221;28;20344;-68
2022/08/31 08:47:25;;;;;;;6.23;4.50;;;24.70;96.00;;;;;;6224061;28;20221;-68
2022/08/31 08:50:41;;;;;;;5.40;4.90;;;25.10;94.40;;;;;;6222816;28;20229;-69
2022/08/31 08:53:50;;;;;;;6.03;5.27;;;25.30;92.30;;;;;;6223164;28;20240;-69
2022/08/31 08:56:53;;;;;;;5.20;4.70;;;25.90;91.90;;;;;;6223290;28;20697;-69
2022/08/31 08:59:59;;;;;;;6.23;5.00;;;26.80;89.40;;;;;;6213695;28;20235;-69
2022/08/31 09:03:06;;;;;;;6.53;5.00;;;27.40;86.10;;;;;;6222713;28;20243;-68
2022/08/31 09:06:13;;;;;;;6.83;4.90;;;27.40;84.30;;;;;;6223770;28;20239;-68
2022/08/31 09:09:29;;;;;;;6.27;5.73;;;27.00;85.70;;;;;;6224702;28;20232;-67
2022/08/31 09:12:43;;;;;;;7.10;5.37;;;26.40;87.80;;;;;;6224766;28;20228;-68
2022/08/31 09:16:03;;;;;;;7.30;5.70;;;26.00;89.40;;;;;;6224375;28;20228;-67
2022/08/31 09:19:10;;;;;;;6.20;5.60;;;25.70;90.20;;;;;;6224429;28;20322;-68
2022/08/31 09:22:13;;;;;;;5.57;4.97;;;25.80;90.30;;;;;;6222887;28;20239;-68
2022/08/31 09:25:25;;;;;;;5.73;5.20;;;26.20;90.00;;;;;;6222366;28;20294;-68
2022/08/31 09:28:34;;;;;;;5.57;4.60;;;26.50;87.80;;;;;;6225169;28;20308;-68
2022/08/31 09:31:45;;;;;;;5.20;4.80;;;27.40;86.80;;;;;;6229081;28;20244;-70
2022/08/31 09:34:53;;;;;;;5.43;4.73;;;29.10;79.30;;;;;;6229303;28;20232;-69
2022/08/31 09:38:05;;;;;;;5.07;4.67;;;29.90;74.80;;;;;;6229235;28;20229;-70
2022/08/31 09:41:22;;;;;;;5.63;5.03;;;31.40;69.50;;;;;;6229226;28;20236;-69
2022/08/31 09:44:31;;;;;;;7.70;4.80;;;31.60;65.60;;;;;;6228990;28;20220;-69
2022/08/31 09:47:47;;;;;;;6.05;4.72;;;30.90;65.80;;;;;;6227772;28;20539;-69
2022/08/31 09:51:01;;;;;;;7.38;4.70;;;29.80;68.00;;;;;;6227265;28;20225;-69
2022/08/31 09:57:45;;;;;;;5.47;4.97;;;28.30;74.60;;;;;;6228431;28;20248;-69
2022/08/31 10:00:51;;;;;;;6.00;4.50;;;27.60;76.60;;;;;;6228914;28;20239;-68
2022/08/31 10:04:14;;;;;;;5.10;4.57;;;27.60;77.80;;;;;;6223623;28;20575;-70
2022/08/31 10:07:31;;;;;;;5.47;4.70;;;27.80;76.20;;;;;;6228319;28;20650;-70
2022/08/31 10:10:37;;;;;;;5.47;4.93;;;27.90;72.50;;;;;;6229052;28;20268;-70
2022/08/31 10:13:48;;;;;;;5.40;4.80;;;27.80;72.90;;;;;;6227477;28;20225;-67
2022/08/31 10:16:59;;;;;;;5.37;4.87;;;27.90;72.50;;;;;;6224263;28;20247;-67
2022/08/31 10:20:09;;;;;;;5.80;4.50;;;28.00;71.50;;;;;;6226252;28;20314;-67
2022/08/31 10:23:17;;;;;;;8.27;5.03;;;28.10;72.20;;;;;;6227982;28;20220;-67
2022/08/31 10:26:32;;;;;;;6.77;5.20;;;28.00;70.20;;;;;;6228749;28;20294;-67
2022/08/31 10:29:46;;;;;;;6.10;4.53;;;27.90;70.10;;;;;;6225724;28;20433;-67
2022/08/31 10:32:57;;;;;;;5.33;4.60;;;27.60;70.80;;;;;;6228352;28;20240;-67
2022/08/31 10:36:01;;;;;;;6.30;4.90;;;27.60;70.30;;;;;;6229017;28;20228;-67
2022/08/31 10:39:16;;;;;;;5.20;4.67;;;27.50;70.90;;;;;;6228601;28;20239;-68
2022/08/31 10:42:28;;;;;;;6.13;4.77;;;27.60;72.00;;;;;;6229191;28;20229;-67
2022/08/31 10:45:37;;;;;;;4.63;4.23;;;27.80;70.60;;;;;;6228455;28;20236;-67
2022/08/31 10:48:53;;;;;;;4.60;4.20;;;27.90;67.60;;;;;;6228714;28;20246;-68
2022/08/31 10:52:04;;;;;;;5.10;4.60;;;28.00;69.20;;;;;;6228123;28;20775;-68
2022/08/31 10:55:14;;;;;;;4.10;3.80;;;28.20;68.00;;;;;;6227892;28;20232;-67
2022/08/31 10:58:29;;;;;;;4.93;4.47;;;28.40;66.80;;;;;;6226587;28;20311;-68
2022/08/31 11:01:46;;;;;;;5.10;4.60;;;28.60;67.60;;;;;;6226242;28;20241;-68
2022/08/31 11:04:57;;;;;;;5.03;4.47;;;28.70;66.50;;;;;;6225953;28;20243;-68
2022/08/31 11:08:12;;;;;;;5.93;4.77;;;29.00;67.00;;;;;;6225954;28;20233;-68
2022/08/31 11:11:29;;;;;;;6.10;5.30;;;29.10;64.20;;;;;;6225892;28;20339;-68
2022/08/31 11:14:55;;;;;;;6.07;4.57;;;28.70;64.90;;;;;;6226668;28;20201;-67
2022/08/31 11:18:44;;;;;;;5.87;5.23;;;28.30;65.80;;;;;;6226943;28;20537;-67
2022/08/31 11:22:27;;;;;;;7.40;5.13;;;27.70;67.70;;;;;;6160477;28;20225;-67
2022/08/31 11:26:00;;;;;;;5.13;4.73;;;27.20;68.60;;;;;;6186970;28;20242;-67
2022/08/31 11:29:14;;;;;;;4.60;4.20;;;26.80;70.00;;;;;;6187210;28;20335;-67
2022/08/31 11:32:22;;;;;;;5.50;4.97;;;26.60;71.30;;;;;;6227646;28;20217;-66
2022/08/31 11:35:58;;;;;;;8.63;4.93;;;26.30;72.00;;;;;;6227260;28;20231;-68
2022/08/31 11:39:36;;;;;;;7.90;5.47;;;26.10;73.70;;;;;;6226137;28;20228;-68
2022/08/31 11:43:00;;;;;;;5.17;4.20;;;25.80;75.40;;;;;;6217111;28;20275;-70
2022/08/31 11:46:36;;;;;;;5.93;5.40;;;25.70;75.50;;;;;;6227790;28;20339;-69
2022/08/31 11:49:45;;;;;;;5.53;4.50;;;25.50;76.70;;;;;;6227638;28;20239;-70
2022/08/31 11:52:52;;;;;;;7.60;5.60;;;25.40;77.70;;;;;;6225961;28;20217;-70
2022/08/31 11:55:59;;;;;;;5.63;5.07;;;25.30;78.20;;;;;;6226111;28;20228;-68
2022/08/31 11:59:21;;;;;;;6.07;5.43;;;25.20;77.70;;;;;;6227078;28;20220;-69
2022/08/31 12:02:44;;;;;;;6.13;4.43;;;25.10;77.90;;;;;;6202664;28;20214;-69
2022/08/31 12:05:56;;;;;;;5.43;4.80;;;25.00;78.60;;;;;;6201605;28;20229;-69
2022/08/31 12:09:22;;;;;;;4.93;4.43;;;24.80;77.40;;;;;;6201879;28;20225;-68
2022/08/31 12:13:08;;;;;;;6.67;5.07;;;24.70;78.50;;;;;;6192685;28;20274;-67
2022/08/31 12:16:26;;;;;;;5.73;5.23;;;24.50;78.80;;;;;;6196419;28;20245;-68
2022/08/31 12:20:00;;;;;;;8.00;4.70;;;24.30;79.50;;;;;;6201471;28;20237;-68
2022/08/31 12:23:36;;;;;;;4.67;4.27;;;24.10;80.60;;;;;;6202557;28;20286;-68
2022/08/31 12:26:51;;;;;;;5.73;5.07;;;23.90;81.80;;;;;;6223517;28;20225;-67
2022/08/31 12:30:20;;;;;;;8.10;5.60;;;23.70;83.20;;;;;;6222356;28;20232;-67
2022/08/31 12:33:26;;;;;;;5.80;5.23;;;23.60;84.00;;;;;;6223143;28;20229;-67
2022/08/31 12:36:32;;;;;;;6.53;5.07;;;23.40;84.90;;;;;;6225418;28;20552;-67
2022/08/31 12:39:35;;;;;;;5.30;4.80;;;23.30;85.70;;;;;;6225262;28;20227;-68
2022/08/31 12:42:45;;;;;;;4.90;4.50;;;23.30;86.40;;;;;;6225975;28;20235;-67
2022/08/31 12:46:16;;;;;;;5.57;5.10;;;23.30;87.20;;;;;;6222372;28;20299;-67
2022/08/31 12:49:45;;;;;;;5.30;4.80;;;23.40;87.90;;;;;;6200931;28;20257;-68
2022/08/31 12:53:25;;;;;;;7.47;5.20;;;23.30;88.20;;;;;;6201195;28;20246;-68
2022/08/31 12:56:37;;;;;;;6.97;5.43;;;23.30;88.70;;;;;;6201162;28;20578;-69
2022/08/31 12:59:56;;;;;;;6.27;5.20;;;23.30;90.30;;;;;;6201143;28;20222;-68
2022/08/31 13:03:14;;;;;;;7.40;5.40;;;23.20;91.60;;;;;;6200991;28;20221;-68
2022/08/31 13:06:24;;;;;;;10.67;6.63;;;23.20;92.60;;;;;;6201189;28;20238;-68
2022/08/31 13:09:31;;;;;;;8.13;6.00;;;23.20;93.00;;;;;;6200899;28;20236;-68
2022/08/31 13:12:34;;;;;;;6.87;6.07;;;23.10;93.50;;;;;;6210827;28;20225;-68
2022/08/31 13:15:41;;;;;;;6.47;5.83;;;23.00;94.90;;;;;;6218462;28;20233;-69
2022/08/31 13:18:45;;;;;;;6.80;6.10;;;22.90;95.00;;;;;;6222789;28;20679;-69
2022/08/31 13:21:54;;;;;;;6.63;5.93;;;22.70;95.50;;;;;;6223320;28;20225;-69
2022/08/31 13:25:15;;;;;;;7.20;5.80;;;22.60;96.00;;;;;;6222308;28;20560;-69
2022/08/31 13:28:24;;;;;;;7.70;6.63;;;22.40;96.50;;;;;;6219867;28;20217;-69
2022/08/31 13:31:34;;;;;;;7.60;6.80;;;22.40;97.40;;;;;;6224266;28;20579;-69
2022/08/31 13:34:40;;;;;;;9.40;6.60;;;22.30;98.10;;;;;;6224927;28;20313;-69
2022/08/31 13:37:58;;;;;;;6.17;5.57;;;22.20;98.90;;;;;;6225066;28;20707;-69
2022/08/31 13:41:04;;;;;;;7.60;6.33;;;22.20;99.40;;;;;;6224977;28;20233;-70
2022/08/31 13:44:12;;;;;;;6.40;5.70;;;22.10;99.90;;;;;;6225148;28;20235;-69
2022/08/31 13:47:22;;;;;;;6.97;6.37;;;22.00;99.90;;;;;;6224623;28;20259;-70
2022/08/31 13:50:32;;;;;;;7.27;6.60;;;21.90;99.90;;;;;;6225032;28;20223;-69
2022/08/31 13:53:39;;;;;;;8.13;6.43;;;21.80;99.90;;;;;;6225120;28;20209;-69
2022/08/31 13:56:57;;;;;;;7.50;6.73;;;21.70;99.90;;;;;;6224828;28;20549;-69
2022/08/31 14:00:27;;;;;;;7.73;6.80;;;21.70;99.90;;;;;;6224618;28;20231;-69
2022/08/31 14:03:43;;;;;;;7.77;7.17;;;21.50;99.90;;;;;;6225073;28;20240;-70
2022/08/31 14:06:51;;;;;;;8.93;7.27;;;21.40;99.90;;;;;;6224732;28;20316;-70
2022/08/31 14:09:57;;;;;;;8.10;6.87;;;21.30;99.90;;;;;;6224832;28;20235;-70
2022/08/31 14:13:03;;;;;;;7.53;6.77;;;21.30;99.90;;;;;;6224607;28;20229;-69
2022/08/31 14:16:08;;;;;;;6.33;5.83;;;21.20;99.90;;;;;;6228471;28;20236;-70
2022/08/31 14:19:13;;;;;;;7.00;6.30;;;21.20;99.90;;;;;;6227874;28;20311;-70
2022/08/31 14:22:27;;;;;;;8.27;7.30;;;21.10;99.90;;;;;;6224678;28;20229;-69
2022/08/31 14:25:33;;;;;;;7.47;6.77;;;21.10;99.90;;;;;;6228835;28;20229;-69
2022/08/31 14:28:40;;;;;;;7.63;6.97;;;21.00;99.90;;;;;;6229329;28;20240;-69
2022/08/31 14:31:48;;;;;;;7.57;6.87;;;21.00;99.90;;;;;;6224897;28;20233;-67
2022/08/31 14:34:52;;;;;;;8.10;7.40;;;20.90;99.90;;;;;;6229084;28;20666;-68
2022/08/31 14:37:55;;;;;;;8.60;7.10;;;20.80;99.90;;;;;;6228094;28;20625;-68
2022/08/31 14:40:59;;;;;;;9.43;7.73;;;20.80;99.90;;;;;;6228843;28;20235;-68
2022/08/31 14:44:09;;;;;;;10.27;7.87;;;20.70;99.90;;;;;;6228595;28;20240;-68
2022/08/31 14:47:12;;;;;;;7.00;6.40;;;20.70;99.90;;;;;;6228277;28;20221;-69
2022/08/31 14:50:22;;;;;;;9.70;7.87;;;20.70;99.90;;;;;;6228016;28;20558;-68
2022/08/31 14:53:29;;;;;;;8.60;7.83;;;20.60;99.90;;;;;;6228532;28;20221;-69
2022/08/31 14:56:37;;;;;;;8.60;7.70;;;20.70;99.90;;;;;;6227985;28;20797;-68
2022/08/31 14:59:43;;;;;;;7.37;6.60;;;20.70;99.90;;;;;;6228250;28;20553;-69
2022/08/31 15:02:46;;;;;;;8.37;7.70;;;20.70;99.90;;;;;;6228093;28;20240;-69
2022/08/31 15:05:51;;;;;;;10.10;7.13;;;20.60;99.90;;;;;;6228472;28;20229;-69
2022/08/31 15:08:54;;;;;;;9.70;7.53;;;20.60;99.90;;;;;;6227785;28;20229;-69
2022/08/31 15:11:59;;;;;;;8.20;7.13;;;20.60;99.90;;;;;;6228201;28;20233;-69
2022/08/31 15:15:03;;;;;;;9.10;8.20;;;20.50;99.90;;;;;;6228313;28;20237;-69
2022/08/31 15:18:06;;;;;;;7.70;7.10;;;20.50;99.90;;;;;;6228505;28;20220;-69
2022/08/31 15:21:12;;;;;;;8.50;7.63;;;20.50;99.90;;;;;;6227908;28;20243;-69
2022/08/31 15:24:15;;;;;;;8.17;7.37;;;20.50;99.90;;;;;;6223481;28;20224;-68
2022/08/31 15:27:21;;;;;;;8.10;7.40;;;20.50;99.90;;;;;;6226757;28;20233;-68
2022/08/31 15:30:24;;;;;;;8.97;6.97;;;20.50;99.90;;;;;;6225276;28;20233;-68
2022/08/31 15:33:30;;;;;;;12.33;7.17;;;20.70;99.90;;;;;;6226952;28;20240;-67
2022/08/31 15:36:35;;;;;;;10.33;7.50;;;20.70;99.90;;;;;;6226530;28;20233;-68
2022/08/31 15:39:42;;;;;;;11.03;6.80;;;20.70;99.90;;;;;;6226540;28;20701;-66
2022/08/31 15:42:45;;;;;;;8.10;7.40;;;20.70;99.90;;;;;;6225641;28;20236;-66
2022/08/31 15:45:48;;;;;;;8.17;7.50;;;20.70;99.90;;;;;;6255513;23;20690;-66
2022/08/31 15:48:50;;;;;;;8.87;7.73;;;20.70;99.90;;;;;;6275694;28;20246;-67
2022/08/31 15:51:55;;;;;;;12.17;9.87;;;20.60;99.90;;;;;;6276204;28;20245;-66
2022/08/31 15:54:59;;;;;;;7.57;6.97;;;20.60;99.90;;;;;;6274039;28;20354;-66
2022/08/31 15:58:03;;;;;;;7.70;7.00;;;20.50;99.90;;;;;;6266601;28;20676;-66
2022/08/31 16:01:11;;;;;;;7.90;7.10;;;20.30;99.90;;;;;;6264650;28;20232;-66
2022/08/31 16:04:22;;;;;;;10.47;6.90;;;20.40;99.90;;;;;;6259657;28;20244;-68
2022/08/31 16:07:27;;;;;;;8.17;7.00;;;20.40;99.90;;;;;;6254609;28;20236;-69
2022/08/31 16:10:30;;;;;;;7.40;6.80;;;20.30;99.90;;;;;;6251719;28;20320;-68
2022/08/31 16:13:33;;;;;;;10.13;7.83;;;20.20;99.90;;;;;;6253323;28;20326;-69
2022/08/31 16:16:39;;;;;;;8.73;7.87;;;20.00;99.90;;;;;;6253839;28;20247;-69
2022/08/31 16:19:42;;;;;;;9.97;8.30;;;19.80;99.90;;;;;;6252982;28;20315;-68
2022/08/31 16:22:47;;;;;;;8.67;7.30;;;19.70;99.90;;;;;;6255972;28;20247;-68
2022/08/31 16:25:51;;;;;;;9.53;8.70;;;19.60;99.90;;;;;;6252960;28;20260;-68
2022/08/31 16:28:55;;;;;;;7.70;6.87;;;19.50;99.90;;;;;;6245546;28;20240;-68
2022/08/31 16:31:58;;;;;;;9.00;7.93;;;19.50;99.90;;;;;;6277964;28;20255;-68